KRWI/RWI METAR and TAF weather

Enter ICAO airport designator
Station Type Date Time Source
KRWI METAR 2022/05/26 04:53 UTC NOAA

KRWI 260453Z AUTO 04005KT 9SM OVC005 17/16 A3025 RMK AO2 SLP242 T01670156 401940156


Station Type Date Time Source
KRWI Decoded METAR 2022/05/26 04:53 UTC NOAA

ROCKY MOUNT-WILSON AIRPORT, NC, United States (KRWI) 35-51N 077-54W 47M
May 26, 2022 - 12:53 AM EDT / 2022.05.26 0453 UTC
Wind: from the NE (040 degrees) at 6 MPH (5 KT):0
Visibility: 9 mile(s):0
Sky conditions: overcast
Temperature: 62.1 F (16.7 C)
Dew Point: 60.1 F (15.6 C)
Relative Humidity: 93%
Pressure (altimeter): 30.25 in. Hg (1024 hPa)
ob: KRWI 260453Z AUTO 04005KT 9SM OVC005 17/16 A3025 RMK AO2 SLP242 T01670156 401940156
cycle: 5

Station Type Date Time Source
KRWI TAF 2022/05/26 03:58 UTC NOAA

TAF
AMD KRWI 260258Z 2603/2624 01005KT 3SM BR OVC005
TEMPO 2608/2612 00000KT 3/4SM BR OVC003
FM261500 VRB03KT P6SM SCT005 BKN015
FM261800 18005KT P6SM SCT015 BKN035

Example: see airport list